Banning, CA (92220)

7:38 PM PDT on September 29, 2016 (GMT -0700)
Aspen Ln | | Change Station

Elev 2648 ft 33.94 °N, 116.92 °W | Updated 11 seconds ago

Clear
Clear
74.6 °F
Feels Like 77 °F
N
0.0
Wind Variable Wind from West

Today
High -- | Low -- °F
--% Chance of Precip.
Yesterday
High -- | Low -- °F
Precip. -- in
Pressure 30.00 in
Visibility 10.0 miles
Clouds Clear
Heat Index 77 °F
Dew Point 45 °F
Humidity 35%
Rainfall 0.00 in
Snow Depth Not available.
6:40 AM 6:33 PM
Waning Crescent, 1% visible
METAR KRIV 300158Z AUTO 30007KT 10SM CLR 28/11 A3003 RMK AO2 SLP157 T02810114
Pressure 30.00 in
Visibility 10.0 miles
Clouds Clear
Heat Index 77 °F
Dew Point 45 °F
Humidity 35%
Rainfall 0.00 in
Snow Depth Not available.
6:40 AM 6:33 PM
Waning Crescent, 1% visible
METAR KRIV 300158Z AUTO 30007KT 10SM CLR 28/11 A3003 RMK AO2 SLP157 T02810114

10-Day Weather Forecast

Almanac

Astronomy

Sep. 29, 2016 Rise Set
Actual Time
Civil Twilight
Nautical Twilight
Astronomical Twilight
Moon
Length of Visible Light
Length of Day
Tomorrow will be .
, % of the Moon is Illuminated

Today's Extremes

State Highs State Lows

Community

WunderPhotos

Upload Photos

1,942,640 photos uploaded!

WunderBlog® & News

Nearby

Air Quality

  Air Quality AQ Index Pollutant
Not available.

Snow Depth

Station Depth Elevation

Earthquake Activity

City Distance Mag. Time & Date
Minimum magnitude displayed is 2.5.

Coastal Water Temperatures

Place Temperature

Stations

Nearby Weather Stations

Station Location Temp. Windchill Dew Point Humidity Wind Precip. Elev Updated Type
                   

Watches & Warnings

There are currently no watches in effect.